Time;durP1;ratioP1;P1;durP2;ratioP2;P2;SDS_P1;SDS_P2;PMS_P1;PMS_P2;Temp;Humidity;BMP_temperature;BMP_pressure;BME280_temperature;BME280_humidity;BME280_pressure;Samples;Min_cycle;Max_cycle;Signal;HPM_P1;HPM_P2
2021/06/06 00:00:20;;;;;;;120.70;51.38;;;;;;;;;;5093969;28;20414;-77
2021/06/06 00:02:46;;;;;;;132.07;53.78;;;;;;;;;;5096260;28;20049;-76
2021/06/06 00:05:14;;;;;;;128.35;53.53;;;;;;;;;;5096578;28;20057;-79
2021/06/06 00:07:40;;;;;;;113.43;54.00;;;;;;;;;;5115943;27;20039;-77
2021/06/06 00:10:08;;;;;;;121.60;55.60;;;;;;;;;;5083428;27;20039;-77
2021/06/06 00:12:35;;;;;;;127.18;55.58;;;;;;;;;;5098333;28;20051;-77
2021/06/06 00:15:02;;;;;;;125.63;55.33;;;;;;;;;;5116223;28;20044;-77
2021/06/06 00:17:28;;;;;;;108.13;53.17;;;;;;;;;;5080998;28;20489;-76
2021/06/06 00:19:54;;;;;;;122.88;54.72;;;;;;;;;;5096695;28;20108;-75
2021/06/06 00:22:21;;;;;;;120.90;53.22;;;;;;;;;;5103384;27;20027;-76
2021/06/06 00:24:47;;;;;;;;;;;;;;;;;;5103472;28;20466;-77
2021/06/06 00:27:13;;;;;;;106.88;48.63;;;;;;;;;;5103285;27;20382;-78
2021/06/06 00:29:40;;;;;;;104.47;48.88;;;;;;;;;;5094635;28;20393;-79
2021/06/06 00:32:06;;;;;;;98.95;45.20;;;;;;;;;;5110246;27;20046;-77
2021/06/06 00:34:33;;;;;;;92.18;47.75;;;;;;;;;;5117784;27;20157;-76
2021/06/06 00:37:02;;;;;;;102.95;49.10;;;;;;;;;;5113618;28;20052;-78
2021/06/06 00:39:28;;;;;;;94.32;49.33;;;;;;;;;;5097360;28;20067;-78
2021/06/06 00:41:54;;;;;;;;;;;;;;;;;;5099143;27;20035;-77
2021/06/06 00:44:21;;;;;;;93.68;47.33;;;;;;;;;;5119086;27;19916;-79
2021/06/06 00:46:47;;;;;;;85.60;43.15;;;;;;;;;;5125410;27;20069;-78
2021/06/06 00:49:13;;;;;;;87.57;44.70;;;;;;;;;;5097304;27;20476;-78
2021/06/06 00:51:47;;;;;;;81.18;42.13;;;;;;;;;;5109062;27;20837;-77
2021/06/06 00:54:15;;;;;;;78.85;42.50;;;;;;;;;;5099625;28;20046;-77
2021/06/06 00:56:43;;;;;;;89.10;43.30;;;;;;;;;;5079905;27;20074;-76
2021/06/06 00:59:10;;;;;;;87.60;46.25;;;;;;;;;;5114590;27;20035;-78
2021/06/06 01:01:36;;;;;;;85.70;43.78;;;;;;;;;;5087067;27;20047;-79
2021/06/06 01:04:03;;;;;;;80.30;44.13;;;;;;;;;;5110874;28;20404;-81
2021/06/06 01:06:31;;;;;;;84.03;45.08;;;;;;;;;;5115583;27;20059;-79
2021/06/06 01:08:58;;;;;;;77.00;42.65;;;;;;;;;;5097807;27;20393;-78
2021/06/06 01:11:44;;;;;;;80.90;43.22;;;;;;;;;;5118979;27;20039;-79
2021/06/06 01:14:13;;;;;;;76.93;42.78;;;;;;;;;;5068221;27;20039;-77
2021/06/06 01:16:46;;;;;;;78.13;42.58;;;;;;;;;;5111151;28;20055;-77
2021/06/06 01:19:30;;;;;;;79.93;43.33;;;;;;;;;;5114475;27;20042;-77
2021/06/06 01:21:59;;;;;;;83.53;42.67;;;;;;;;;;5100450;27;20077;-79
2021/06/06 01:24:29;;;;;;;77.53;42.40;;;;;;;;;;5087871;27;20050;-77
2021/06/06 01:27:00;;;;;;;73.88;40.22;;;;;;;;;;5093643;28;20111;-79
2021/06/06 01:29:46;;;;;;;73.93;40.42;;;;;;;;;;5097255;27;20518;-77
2021/06/06 01:32:21;;;;;;;67.88;40.75;;;;;;;;;;5104669;27;20047;-77
2021/06/06 01:34:51;;;;;;;68.18;39.33;;;;;;;;;;5115601;27;20518;-78
2021/06/06 01:37:20;;;;;;;68.60;40.60;;;;;;;;;;5113475;28;20050;-77
2021/06/06 01:39:48;;;;;;;68.68;37.85;;;;;;;;;;5116463;27;20066;-77
2021/06/06 01:42:17;;;;;;;66.65;40.35;;;;;;;;;;5118721;27;20036;-78
2021/06/06 01:44:47;;;;;;;60.47;37.90;;;;;;;;;;5095861;28;20035;-78
2021/06/06 01:47:17;;;;;;;63.20;38.20;;;;;;;;;;5096569;27;20418;-78
2021/06/06 01:49:55;;;;;;;58.63;37.15;;;;;;;;;;5100151;28;20080;-79
2021/06/06 01:52:23;;;;;;;59.13;35.47;;;;;;;;;;5095851;28;20035;-79
2021/06/06 01:54:49;;;;;;;55.10;35.28;;;;;;;;;;5094969;28;20032;-78
2021/06/06 01:57:18;;;;;;;55.85;36.35;;;;;;;;;;5117411;27;20027;-77
2021/06/06 01:59:47;;;;;;;53.42;34.33;;;;;;;;;;5113690;28;20035;-77
2021/06/06 02:02:13;;;;;;;53.40;34.50;;;;;;;;;;5094986;28;20063;-77
2021/06/06 02:04:40;;;;;;;54.55;35.92;;;;;;;;;;5095076;28;20511;-77
2021/06/06 02:07:12;;;;;;;59.45;35.30;;;;;;;;;;5094938;28;20028;-77
2021/06/06 02:09:42;;;;;;;53.50;34.55;;;;;;;;;;5115288;27;20036;-77
2021/06/06 02:12:09;;;;;;;52.70;34.95;;;;;;;;;;5113006;28;20039;-77
2021/06/06 02:14:41;;;;;;;55.75;36.42;;;;;;;;;;5094912;28;20047;-77
2021/06/06 02:17:10;;;;;;;55.53;35.28;;;;;;;;;;5112927;27;20031;-77
2021/06/06 02:19:37;;;;;;;53.78;36.20;;;;;;;;;;5095304;28;20031;-76
2021/06/06 02:22:06;;;;;;;56.22;36.33;;;;;;;;;;5098899;27;20388;-77
2021/06/06 02:24:33;;;;;;;55.40;37.75;;;;;;;;;;5095069;28;20043;-77
2021/06/06 02:27:03;;;;;;;55.33;37.08;;;;;;;;;;5108643;28;20061;-77
2021/06/06 02:29:33;;;;;;;56.17;38.33;;;;;;;;;;5093389;28;20486;-78
2021/06/06 02:32:02;;;;;;;56.63;38.35;;;;;;;;;;5106006;27;20027;-77
2021/06/06 02:34:29;;;;;;;61.33;40.13;;;;;;;;;;5113880;27;20040;-76
2021/06/06 02:36:55;;;;;;;;;;;;;;;;;;5107717;27;20044;-76
2021/06/06 02:39:24;;;;;;;56.00;37.80;;;;;;;;;;5114037;27;19985;-79
2021/06/06 02:41:50;;;;;;;62.60;39.60;;;;;;;;;;5121608;27;20059;-78
2021/06/06 02:44:16;;;;;;;;;;;;;;;;;;5115935;27;20038;-80
2021/06/06 02:46:43;;;;;;;59.23;38.23;;;;;;;;;;5105423;28;19916;-78
2021/06/06 02:49:12;;;;;;;60.97;38.17;;;;;;;;;;5117540;27;20039;-79
2021/06/06 02:51:44;;;;;;;62.30;38.20;;;;;;;;;;5114087;27;20380;-79
2021/06/06 02:54:21;;;;;;;64.20;38.63;;;;;;;;;;5112882;28;20119;-80
2021/06/06 02:56:51;;;;;;;62.10;37.40;;;;;;;;;;5120744;27;20100;-81
2021/06/06 02:59:21;;;;;;;56.50;37.17;;;;;;;;;;5118030;27;20432;-78
2021/06/06 03:01:47;;;;;;;;;;;;;;;;;;5106775;28;20062;-81
2021/06/06 03:04:15;;;;;;;59.65;37.20;;;;;;;;;;5113635;28;19916;-82
2021/06/06 03:06:43;;;;;;;58.42;36.03;;;;;;;;;;5098300;28;20491;-79
2021/06/06 03:09:16;;;;;;;59.75;35.35;;;;;;;;;;5090422;28;20408;-81
2021/06/06 03:11:43;;;;;;;55.80;34.60;;;;;;;;;;5095826;28;20036;-76
2021/06/06 03:14:11;;;;;;;56.17;35.03;;;;;;;;;;5113033;28;20101;-77
2021/06/06 03:16:40;;;;;;;59.22;35.95;;;;;;;;;;5096649;28;20423;-78
2021/06/06 03:19:07;;;;;;;53.00;35.58;;;;;;;;;;5114391;28;20084;-77
2021/06/06 03:21:36;;;;;;;57.47;35.30;;;;;;;;;;5096262;28;20035;-77
2021/06/06 03:24:07;;;;;;;56.30;35.17;;;;;;;;;;5104140;28;20028;-78
2021/06/06 03:26:34;;;;;;;55.35;34.30;;;;;;;;;;5112182;28;20035;-76
2021/06/06 03:29:03;;;;;;;56.60;34.47;;;;;;;;;;5120759;27;20036;-79
2021/06/06 03:31:31;;;;;;;54.13;34.00;;;;;;;;;;5091381;28;20097;-79
2021/06/06 03:33:59;;;;;;;58.90;37.60;;;;;;;;;;5110951;28;20035;-78
2021/06/06 03:36:27;;;;;;;56.35;34.60;;;;;;;;;;5111766;28;20063;-78
2021/06/06 03:38:55;;;;;;;55.80;34.45;;;;;;;;;;5114705;28;20043;-78
2021/06/06 03:41:22;;;;;;;56.17;33.58;;;;;;;;;;5111281;28;20476;-77
2021/06/06 03:43:48;;;;;;;51.67;31.92;;;;;;;;;;5112485;28;20032;-78
2021/06/06 03:46:15;;;;;;;45.83;29.67;;;;;;;;;;5093256;28;20513;-78
2021/06/06 03:48:41;;;;;;;48.88;32.50;;;;;;;;;;5107560;28;20057;-78
2021/06/06 03:51:07;;;;;;;;;;;;;;;;;;5121046;28;20088;-77
2021/06/06 03:53:36;;;;;;;45.10;30.60;;;;;;;;;;5112372;28;20273;-78
2021/06/06 03:56:02;;;;;;;43.45;29.92;;;;;;;;;;5076153;28;20032;-78
2021/06/06 03:58:28;;;;;;;39.45;26.42;;;;;;;;;;5078533;28;20108;-78
2021/06/06 04:00:56;;;;;;;;;;;;;;;;;;5080982;28;20044;-78
2021/06/06 04:03:22;;;;;;;43.83;30.42;;;;;;;;;;5105783;28;19915;-77
2021/06/06 04:05:49;;;;;;;49.67;32.45;;;;;;;;;;5093097;28;20043;-78
2021/06/06 04:08:16;;;;;;;49.05;32.50;;;;;;;;;;5112945;28;20043;-78
2021/06/06 04:10:43;;;;;;;52.28;32.08;;;;;;;;;;5111769;28;20044;-77
2021/06/06 04:13:09;;;;;;;48.42;30.73;;;;;;;;;;5123778;28;20441;-78
2021/06/06 04:15:36;;;;;;;50.42;32.70;;;;;;;;;;5112030;28;20036;-78
2021/06/06 04:18:17;;;;;;;54.70;33.78;;;;;;;;;;5094372;28;20051;-78
2021/06/06 04:20:44;;;;;;;52.53;32.17;;;;;;;;;;5112326;28;20118;-77
2021/06/06 04:23:11;;;;;;;50.50;34.22;;;;;;;;;;5098658;28;20062;-78
2021/06/06 04:25:37;;;;;;;49.13;30.45;;;;;;;;;;5098508;28;20408;-77
2021/06/06 04:28:04;;;;;;;45.25;30.50;;;;;;;;;;5104331;28;20494;-77
2021/06/06 04:30:30;;;;;;;46.75;29.92;;;;;;;;;;5101830;28;20048;-77
2021/06/06 04:32:56;;;;;;;;;;;;;;;;;;5120769;28;20112;-76
2021/06/06 04:35:22;;;;;;;46.42;30.75;;;;;;;;;;5110957;28;19942;-78
2021/06/06 04:37:49;;;;;;;49.33;31.15;;;;;;;;;;5100033;28;20051;-78
2021/06/06 04:40:15;;;;;;;47.08;32.15;;;;;;;;;;5095088;28;20040;-78
2021/06/06 04:42:42;;;;;;;42.83;27.42;;;;;;;;;;5101296;28;20392;-78
2021/06/06 04:45:13;;;;;;;40.65;26.90;;;;;;;;;;5096761;28;20036;-78
2021/06/06 04:47:39;;;;;;;41.72;25.50;;;;;;;;;;5105447;28;20404;-78
2021/06/06 04:50:07;;;;;;;37.63;24.92;;;;;;;;;;5096460;28;20472;-77
2021/06/06 04:52:38;;;;;;;33.97;23.52;;;;;;;;;;5117412;27;20396;-77
2021/06/06 04:55:10;;;;;;;34.80;23.23;;;;;;;;;;5109307;27;20114;-77
2021/06/06 04:57:36;;;;;;;38.42;25.45;;;;;;;;;;5117724;27;20483;-78
2021/06/06 05:00:04;;;;;;;36.83;24.35;;;;;;;;;;5119968;27;20027;-79
2021/06/06 05:02:31;;;;;;;31.02;22.67;;;;;;;;;;5080451;28;20047;-78
2021/06/06 05:04:57;;;;;;;;;;;;;;;;;;5108433;27;20131;-79
2021/06/06 05:07:23;;;;;;;35.30;22.63;;;;;;;;;;5095979;28;19967;-77
2021/06/06 05:09:49;;;;;;;37.25;23.38;;;;;;;;;;5060723;28;20032;-78
2021/06/06 05:12:15;;;;;;;34.35;23.98;;;;;;;;;;5111725;28;20051;-78
2021/06/06 05:14:42;;;;;;;33.90;23.90;;;;;;;;;;5105826;27;20039;-79
2021/06/06 05:17:08;;;;;;;;;;;;;;;;;;5115699;28;20076;-78
2021/06/06 05:19:34;;;;;;;36.88;22.58;;;;;;;;;;5103023;27;19954;-78
2021/06/06 05:22:01;;;;;;;34.25;25.02;;;;;;;;;;5085237;28;20550;-78
2021/06/06 05:24:27;;;;;;;36.90;23.05;;;;;;;;;;5096337;28;20043;-78
2021/06/06 05:26:53;;;;;;;37.05;24.83;;;;;;;;;;5098729;28;20405;-78
2021/06/06 05:29:19;;;;;;;41.72;27.00;;;;;;;;;;5115453;27;20532;-78
2021/06/06 05:31:46;;;;;;;44.55;27.30;;;;;;;;;;5119385;27;20048;-77
2021/06/06 05:34:12;;;;;;;42.38;26.45;;;;;;;;;;5089210;27;20032;-79
2021/06/06 05:36:39;;;;;;;42.08;27.08;;;;;;;;;;5086943;28;20048;-78
2021/06/06 05:39:06;;;;;;;45.35;27.17;;;;;;;;;;5113223;27;20063;-78
2021/06/06 05:41:33;;;;;;;39.97;28.63;;;;;;;;;;5098249;28;20047;-78
2021/06/06 05:43:59;;;;;;;44.65;28.92;;;;;;;;;;5097329;28;20070;-77
2021/06/06 05:46:25;;;;;;;;;;;;;;;;;;5096478;28;20024;-78
2021/06/06 05:48:51;;;;;;;46.90;29.13;;;;;;;;;;5094265;27;19919;-78
2021/06/06 05:51:20;;;;;;;42.92;28.40;;;;;;;;;;5067040;28;20063;-78
2021/06/06 05:53:47;;;;;;;46.33;30.23;;;;;;;;;;5096816;28;20043;-78
2021/06/06 05:56:14;;;;;;;49.25;30.23;;;;;;;;;;5112347;28;20039;-77
2021/06/06 05:58:40;;;;;;;47.63;30.20;;;;;;;;;;5094522;28;20088;-78
2021/06/06 06:01:07;;;;;;;54.20;32.55;;;;;;;;;;5080922;28;20150;-78
2021/06/06 06:03:34;;;;;;;47.97;32.40;;;;;;;;;;5107192;28;20074;-78
2021/06/06 06:06:05;;;;;;;53.00;33.47;;;;;;;;;;5112404;28;20380;-79
2021/06/06 06:08:36;;;;;;;47.42;29.98;;;;;;;;;;5124329;27;20126;-80
2021/06/06 06:11:11;;;;;;;54.38;33.20;;;;;;;;;;5112500;28;20075;-79
2021/06/06 06:13:42;;;;;;;57.63;34.17;;;;;;;;;;5109748;28;20089;-78
2021/06/06 06:16:09;;;;;;;63.53;34.20;;;;;;;;;;5095051;28;20396;-78
2021/06/06 06:18:35;;;;;;;67.22;36.50;;;;;;;;;;5128688;27;20040;-78
2021/06/06 06:21:04;;;;;;;70.68;39.47;;;;;;;;;;5091667;27;20038;-77
2021/06/06 06:23:32;;;;;;;69.30;38.90;;;;;;;;;;5109384;28;20043;-76
2021/06/06 06:25:58;;;;;;;;;;;;;;;;;;5114771;27;20032;-77
2021/06/06 06:28:46;;;;;;;69.57;38.95;;;;;;;;;;5106617;28;20306;-76
2021/06/06 06:31:13;;;;;;;70.70;36.10;;;;;;;;;;5086183;28;20122;-77
2021/06/06 06:33:40;;;;;;;57.90;29.27;;;;;;;;;;5113876;28;20035;-77
2021/06/06 06:36:06;;;;;;;59.97;32.47;;;;;;;;;;5109281;27;20154;-76
2021/06/06 06:38:38;;;;;;;55.05;29.50;;;;;;;;;;5096330;28;20035;-76
2021/06/06 06:41:06;;;;;;;58.58;30.13;;;;;;;;;;5114112;27;20114;-76
2021/06/06 06:43:32;;;;;;;54.22;30.38;;;;;;;;;;5113376;28;20051;-76
2021/06/06 06:45:58;;;;;;;;;;;;;;;;;;5113408;28;20386;-76
2021/06/06 06:48:26;;;;;;;56.75;28.60;;;;;;;;;;5094223;28;20356;-76
2021/06/06 06:50:53;;;;;;;58.25;31.15;;;;;;;;;;5112289;28;20089;-76
2021/06/06 06:53:20;;;;;;;60.58;30.90;;;;;;;;;;5114282;27;20081;-77
2021/06/06 06:55:46;;;;;;;59.50;30.92;;;;;;;;;;5096389;28;20059;-76
2021/06/06 06:58:13;;;;;;;56.65;31.08;;;;;;;;;;5094329;28;20036;-75
2021/06/06 07:00:41;;;;;;;65.03;31.30;;;;;;;;;;5106929;27;20032;-75
2021/06/06 07:03:08;;;;;;;68.25;34.55;;;;;;;;;;5112007;28;20035;-75
2021/06/06 07:05:34;;;;;;;70.80;34.50;;;;;;;;;;5112827;28;20066;-75
2021/06/06 07:08:00;;;;;;;69.47;35.13;;;;;;;;;;5119527;27;20110;-75
2021/06/06 07:10:26;;;;;;;;;;;;;;;;;;5111573;28;20042;-75
2021/06/06 07:12:53;;;;;;;69.75;36.92;;;;;;;;;;5113697;27;19916;-75
2021/06/06 07:15:20;;;;;;;76.75;40.10;;;;;;;;;;5112174;28;20028;-75
2021/06/06 07:17:47;;;;;;;72.20;36.40;;;;;;;;;;5111655;28;20038;-76
2021/06/06 07:20:15;;;;;;;64.03;34.67;;;;;;;;;;5111003;28;20110;-78
2021/06/06 07:22:41;;;;;;;73.30;36.17;;;;;;;;;;5126305;28;20042;-79
2021/06/06 07:25:09;;;;;;;75.35;38.85;;;;;;;;;;5094142;28;20487;-80
2021/06/06 07:27:38;;;;;;;64.00;35.35;;;;;;;;;;5120108;28;20035;-81
2021/06/06 07:30:08;;;;;;;59.13;31.05;;;;;;;;;;5093233;28;20119;-79
2021/06/06 07:32:34;;;;;;;56.53;31.58;;;;;;;;;;5096455;28;20108;-80
2021/06/06 07:35:02;;;;;;;61.25;31.55;;;;;;;;;;5115284;28;20035;-81
2021/06/06 07:37:28;;;;;;;58.70;30.88;;;;;;;;;;5124427;28;20042;-82
2021/06/06 07:39:54;;;;;;;58.15;31.50;;;;;;;;;;5110322;28;20488;-80
2021/06/06 07:42:22;;;;;;;60.80;33.50;;;;;;;;;;5110940;28;20044;-81
2021/06/06 07:44:48;;;;;;;;;;;;;;;;;;5111932;28;20477;-80
2021/06/06 07:47:15;;;;;;;59.13;33.35;;;;;;;;;;5111496;28;19916;-80
2021/06/06 07:49:42;;;;;;;53.15;30.02;;;;;;;;;;5116738;28;20108;-82
2021/06/06 07:52:08;;;;;;;47.35;29.92;;;;;;;;;;5081923;28;20465;-81
2021/06/06 07:54:36;;;;;;;51.17;30.20;;;;;;;;;;5112371;28;20079;-82
2021/06/06 07:57:04;;;;;;;50.08;28.75;;;;;;;;;;5106437;28;20084;-81
2021/06/06 07:59:33;;;;;;;46.92;27.63;;;;;;;;;;5102998;28;20039;-81
2021/06/06 08:02:00;;;;;;;46.47;27.27;;;;;;;;;;5098355;28;20043;-81
2021/06/06 08:04:31;;;;;;;45.58;26.05;;;;;;;;;;5112282;28;20053;-81
2021/06/06 08:06:57;;;;;;;42.08;25.60;;;;;;;;;;5105813;28;20032;-80
2021/06/06 08:09:25;;;;;;;37.53;24.10;;;;;;;;;;5106938;28;20114;-80
2021/06/06 08:11:51;;;;;;;41.58;23.95;;;;;;;;;;5086976;28;20043;-82
2021/06/06 08:14:18;;;;;;;42.65;26.23;;;;;;;;;;5106724;28;20043;-80
2021/06/06 08:16:44;;;;;;;;;;;;;;;;;;5116022;27;20046;-80
2021/06/06 08:19:10;;;;;;;40.13;24.75;;;;;;;;;;5097047;28;20380;-80
2021/06/06 08:21:40;;;;;;;42.53;24.13;;;;;;;;;;5119640;27;20043;-81
2021/06/06 08:24:07;;;;;;;40.15;24.65;;;;;;;;;;5117212;27;20039;-80
2021/06/06 08:26:33;;;;;;;40.40;25.38;;;;;;;;;;5113718;27;20027;-80
2021/06/06 08:29:00;;;;;;;42.97;23.65;;;;;;;;;;5101549;28;20046;-80
2021/06/06 08:31:26;;;;;;;;;;;;;;;;;;5095768;28;20047;-80
2021/06/06 08:33:52;;;;;;;46.22;28.13;;;;;;;;;;5116621;27;19938;-80
2021/06/06 08:36:21;;;;;;;46.47;28.52;;;;;;;;;;5108005;28;20038;-81
2021/06/06 08:38:48;;;;;;;45.10;23.75;;;;;;;;;;5117433;27;20043;-80
2021/06/06 08:41:17;;;;;;;46.80;26.02;;;;;;;;;;5115241;27;20032;-79
2021/06/06 08:43:44;;;;;;;44.58;27.60;;;;;;;;;;5114548;28;20047;-79
2021/06/06 08:46:10;;;;;;;;;;;;;;;;;;5116448;27;20023;-79
2021/06/06 08:48:36;;;;;;;43.80;22.33;;;;;;;;;;5120386;27;20376;-80
2021/06/06 08:51:21;;;;;;;39.38;23.42;;;;;;;;;;5120178;27;20123;-80
2021/06/06 08:53:47;;;;;;;33.40;20.73;;;;;;;;;;5120237;27;20035;-79
2021/06/06 08:56:19;;;;;;;34.50;22.52;;;;;;;;;;5114511;27;20032;-79
2021/06/06 08:58:55;;;;;;;27.48;17.52;;;;;;;;;;5114814;27;20038;-79
2021/06/06 09:01:21;;;;;;;24.60;15.85;;;;;;;;;;5119185;27;20038;-79
2021/06/06 09:03:49;;;;;;;20.75;15.75;;;;;;;;;;5102234;28;20457;-79
2021/06/06 09:06:18;;;;;;;20.00;15.43;;;;;;;;;;5112676;28;20034;-78
2021/06/06 09:08:44;;;;;;;26.88;16.52;;;;;;;;;;5113049;28;20039;-79
2021/06/06 09:11:10;;;;;;;;;;;;;;;;;;5112113;27;20135;-79
2021/06/06 09:13:37;;;;;;;21.95;17.05;;;;;;;;;;5106545;28;19915;-79
2021/06/06 09:16:12;;;;;;;25.20;17.80;;;;;;;;;;5113019;28;20028;-79
2021/06/06 09:18:40;;;;;;;24.88;17.92;;;;;;;;;;5112856;27;20411;-79
2021/06/06 09:21:11;;;;;;;22.73;17.45;;;;;;;;;;5111039;28;20059;-78
2021/06/06 09:23:37;;;;;;;27.80;18.48;;;;;;;;;;5113605;27;20438;-79
2021/06/06 09:26:03;;;;;;;;;;;;;;;;;;5095042;27;20035;-79
2021/06/06 09:28:30;;;;;;;22.98;15.85;;;;;;;;;;5112346;27;20013;-78
2021/06/06 09:30:58;;;;;;;24.70;16.73;;;;;;;;;;5113568;27;20465;-77
2021/06/06 09:33:30;;;;;;;16.05;13.30;;;;;;;;;;5113203;28;20035;-79
2021/06/06 09:36:00;;;;;;;14.85;11.25;;;;;;;;;;5103459;28;20043;-78
2021/06/06 09:38:32;;;;;;;15.20;12.00;;;;;;;;;;5112362;28;20393;-78
2021/06/06 09:41:33;;;;;;;16.67;12.27;;;;;;;;;;5113641;27;20035;-78
2021/06/06 09:44:06;;;;;;;16.45;12.57;;;;;;;;;;5094727;28;20413;-79
2021/06/06 09:46:34;;;;;;;17.05;13.20;;;;;;;;;;5099634;28;20546;-78
2021/06/06 09:49:07;;;;;;;19.00;13.30;;;;;;;;;;5100534;28;20170;-79
2021/06/06 09:51:34;;;;;;;14.73;12.23;;;;;;;;;;5117141;27;20027;-80
2021/06/06 09:54:26;;;;;;;17.17;12.52;;;;;;;;;;5094775;28;20040;-79
2021/06/06 09:56:54;;;;;;;15.18;11.38;;;;;;;;;;5108264;28;20051;-79
2021/06/06 09:59:31;;;;;;;11.18;9.43;;;;;;;;;;5115186;27;20370;-79
2021/06/06 10:02:24;;;;;;;12.60;10.13;;;;;;;;;;5121612;27;20039;-78
2021/06/06 10:04:58;;;;;;;11.35;9.02;;;;;;;;;;5115839;27;20051;-79
2021/06/06 10:07:33;;;;;;;11.05;9.20;;;;;;;;;;5113805;28;20036;-78
2021/06/06 10:10:00;;;;;;;10.43;8.90;;;;;;;;;;5112589;27;20062;-78
2021/06/06 10:12:26;;;;;;;11.35;8.70;;;;;;;;;;5112494;27;20039;-78
2021/06/06 10:14:52;;;;;;;;;;;;;;;;;;5114637;27;20059;-78
2021/06/06 10:17:20;;;;;;;12.00;8.70;;;;;;;;;;5113237;27;19916;-78
2021/06/06 10:19:54;;;;;;;12.70;9.02;;;;;;;;;;5112755;28;20481;-79
2021/06/06 10:22:25;;;;;;;10.38;8.82;;;;;;;;;;5100953;27;20063;-78
2021/06/06 10:24:57;;;;;;;11.18;8.80;;;;;;;;;;5114644;27;20036;-78
2021/06/06 10:27:33;;;;;;;10.68;7.97;;;;;;;;;;5091447;28;20036;-78
2021/06/06 10:30:03;;;;;;;9.77;8.07;;;;;;;;;;5107565;27;20107;-78
2021/06/06 10:32:31;;;;;;;10.48;8.15;;;;;;;;;;5130228;27;20031;-78
2021/06/06 10:35:01;;;;;;;8.82;7.40;;;;;;;;;;5093117;28;20127;-78
2021/06/06 10:37:29;;;;;;;9.07;7.63;;;;;;;;;;5112875;28;20445;-78
2021/06/06 10:39:57;;;;;;;9.10;7.57;;;;;;;;;;5116489;27;20127;-78
2021/06/06 10:42:33;;;;;;;10.27;8.25;;;;;;;;;;5110361;27;20036;-79
2021/06/06 10:45:05;;;;;;;9.13;6.95;;;;;;;;;;5091444;28;20042;-76
2021/06/06 10:47:37;;;;;;;9.95;8.30;;;;;;;;;;5115317;27;20027;-78
2021/06/06 10:50:13;;;;;;;9.68;7.90;;;;;;;;;;5111037;27;20055;-77
2021/06/06 10:52:39;;;;;;;;;;;;;;;;;;5111967;28;20551;-78
2021/06/06 10:55:19;;;;;;;9.98;8.32;;;;;;;;;;5109743;27;19954;-78
2021/06/06 10:57:45;;;;;;;8.20;7.40;;;;;;;;;;5108309;28;20036;-78
2021/06/06 11:00:24;;;;;;;8.60;7.38;;;;;;;;;;5098432;28;20035;-78
2021/06/06 11:02:50;;;;;;;10.95;8.52;;;;;;;;;;5123499;27;20045;-78
2021/06/06 11:05:16;;;;;;;;;;;;;;;;;;5113486;27;20074;-78
2021/06/06 11:07:44;;;;;;;9.40;8.00;;;;;;;;;;5112339;27;19942;-77
2021/06/06 11:10:16;;;;;;;12.77;9.30;;;;;;;;;;5085724;28;20043;-78
2021/06/06 11:12:43;;;;;;;10.57;8.93;;;;;;;;;;5111916;28;20043;-78
2021/06/06 11:15:19;;;;;;;11.88;10.15;;;;;;;;;;5103986;28;20048;-78
2021/06/06 11:17:45;;;;;;;13.77;10.30;;;;;;;;;;5111489;28;20059;-77
2021/06/06 11:20:11;;;;;;;;;;;;;;;;;;5095325;28;20035;-78
2021/06/06 11:22:38;;;;;;;13.40;11.25;;;;;;;;;;5111237;28;19915;-78
2021/06/06 11:25:06;;;;;;;13.23;11.23;;;;;;;;;;5110549;27;20078;-79
2021/06/06 11:27:36;;;;;;;15.98;13.27;;;;;;;;;;5110675;28;20110;-79
2021/06/06 11:30:28;;;;;;;16.67;13.52;;;;;;;;;;5096753;28;20123;-78
2021/06/06 11:33:00;;;;;;;19.60;15.40;;;;;;;;;;5097202;28;20075;-79
2021/06/06 11:35:32;;;;;;;21.33;15.25;;;;;;;;;;5107827;28;20122;-78
2021/06/06 11:37:59;;;;;;;21.20;16.02;;;;;;;;;;5107670;28;20133;-78
2021/06/06 11:40:34;;;;;;;17.73;12.15;;;;;;;;;;5106074;28;20040;-78
2021/06/06 11:43:09;;;;;;;14.50;11.30;;;;;;;;;;5108242;28;20040;-78
2021/06/06 11:45:38;;;;;;;16.27;11.70;;;;;;;;;;5107461;28;20390;-80
2021/06/06 11:48:09;;;;;;;15.13;11.98;;;;;;;;;;5090854;28;20032;-80
2021/06/06 11:50:39;;;;;;;17.92;12.07;;;;;;;;;;5111299;28;20044;-80
2021/06/06 11:53:24;;;;;;;16.42;11.13;;;;;;;;;;5112311;28;20036;-77
2021/06/06 11:55:52;;;;;;;17.90;11.77;;;;;;;;;;5110020;28;20428;-77
2021/06/06 11:58:21;;;;;;;13.73;11.85;;;;;;;;;;5112335;28;20373;-79
2021/06/06 12:00:53;;;;;;;14.85;11.70;;;;;;;;;;5110930;27;20290;-79
2021/06/06 12:03:26;;;;;;;16.20;11.07;;;;;;;;;;5108884;27;20560;-79
2021/06/06 12:05:56;;;;;;;18.38;13.10;;;;;;;;;;5113301;27;20122;-79
2021/06/06 12:08:29;;;;;;;18.35;11.90;;;;;;;;;;5111967;28;20071;-79
2021/06/06 12:10:57;;;;;;;17.27;12.18;;;;;;;;;;5107391;28;20043;-79
2021/06/06 12:13:41;;;;;;;21.90;13.20;;;;;;;;;;5111668;28;20081;-79
2021/06/06 12:16:07;;;;;;;17.40;12.57;;;;;;;;;;5107006;28;20039;-79
2021/06/06 12:18:33;;;;;;;14.93;11.95;;;;;;;;;;5110857;28;20392;-79
2021/06/06 12:21:02;;;;;;;15.00;11.63;;;;;;;;;;5112215;27;20138;-79
2021/06/06 12:23:33;;;;;;;18.02;11.98;;;;;;;;;;5104958;28;20059;-79
2021/06/06 12:26:08;;;;;;;18.45;13.10;;;;;;;;;;5110440;28;20421;-79
2021/06/06 12:28:36;;;;;;;21.38;14.23;;;;;;;;;;5109512;28;20036;-79
2021/06/06 12:31:04;;;;;;;25.90;16.85;;;;;;;;;;5098930;28;20031;-79
2021/06/06 12:33:32;;;;;;;25.92;16.38;;;;;;;;;;5115012;27;20420;-79
2021/06/06 12:36:01;;;;;;;26.73;17.83;;;;;;;;;;5116961;27;20042;-79
2021/06/06 12:38:28;;;;;;;25.00;14.85;;;;;;;;;;5107590;28;20062;-79
2021/06/06 12:40:54;;;;;;;22.83;14.82;;;;;;;;;;5115638;27;20039;-80
2021/06/06 12:43:25;;;;;;;23.02;14.73;;;;;;;;;;5116089;27;20035;-79
2021/06/06 12:45:53;;;;;;;23.23;14.63;;;;;;;;;;5110757;28;20043;-79
2021/06/06 12:48:25;;;;;;;24.45;15.32;;;;;;;;;;5110888;28;20039;-79
2021/06/06 12:50:52;;;;;;;25.15;15.90;;;;;;;;;;5109910;28;20392;-79
2021/06/06 12:53:18;;;;;;;20.98;14.90;;;;;;;;;;5111929;28;20043;-79
2021/06/06 12:55:44;;;;;;;;;;;;;;;;;;5109972;28;20042;-79
2021/06/06 12:58:20;;;;;;;21.08;14.98;;;;;;;;;;5110685;28;19919;-79
2021/06/06 13:00:49;;;;;;;23.85;15.10;;;;;;;;;;5108969;27;20496;-79
2021/06/06 13:03:20;;;;;;;21.63;15.13;;;;;;;;;;5109496;27;20106;-80
2021/06/06 13:05:49;;;;;;;26.27;16.05;;;;;;;;;;5110336;28;20530;-79
2021/06/06 13:08:24;;;;;;;25.70;15.38;;;;;;;;;;5111184;28;20043;-79
2021/06/06 13:10:55;;;;;;;22.05;15.63;;;;;;;;;;5110015;27;20051;-79
2021/06/06 13:13:28;;;;;;;23.20;15.68;;;;;;;;;;5118898;27;20036;-78
2021/06/06 13:15:54;;;;;;;22.08;15.85;;;;;;;;;;5110721;28;20060;-79
2021/06/06 13:18:20;;;;;;;;;;;;;;;;;;5091905;28;20111;-79
2021/06/06 13:20:49;;;;;;;28.52;15.73;;;;;;;;;;5109358;28;19927;-78
2021/06/06 13:23:34;;;;;;;24.00;16.63;;;;;;;;;;5110723;28;20123;-78
2021/06/06 13:26:02;;;;;;;29.27;16.85;;;;;;;;;;5103909;27;20096;-78
2021/06/06 13:28:33;;;;;;;25.15;16.33;;;;;;;;;;5108224;27;20044;-79
2021/06/06 13:31:08;;;;;;;21.20;15.57;;;;;;;;;;5110418;28;20044;-79
2021/06/06 13:33:37;;;;;;;26.50;15.10;;;;;;;;;;5094114;28;20032;-79
2021/06/06 13:36:04;;;;;;;23.55;15.18;;;;;;;;;;5110138;28;20055;-79
2021/06/06 13:38:32;;;;;;;20.98;15.10;;;;;;;;;;5109684;28;20531;-79
2021/06/06 13:40:59;;;;;;;22.17;15.00;;;;;;;;;;5109217;28;20054;-79
2021/06/06 13:43:25;;;;;;;19.77;15.50;;;;;;;;;;5111160;27;20043;-79
2021/06/06 13:45:52;;;;;;;22.95;16.13;;;;;;;;;;5109746;28;20050;-79
2021/06/06 13:48:20;;;;;;;25.05;15.50;;;;;;;;;;5109741;28;20058;-78
2021/06/06 13:50:46;;;;;;;24.05;15.48;;;;;;;;;;5109265;28;20599;-79
2021/06/06 13:53:21;;;;;;;24.30;14.95;;;;;;;;;;5109878;28;20545;-79
2021/06/06 13:55:47;;;;;;;22.05;15.90;;;;;;;;;;5108265;28;20059;-81
2021/06/06 13:58:13;;;;;;;26.50;14.82;;;;;;;;;;5109655;28;20040;-79
2021/06/06 14:00:40;;;;;;;19.48;14.07;;;;;;;;;;5086058;28;20039;-79
2021/06/06 14:03:08;;;;;;;21.48;14.23;;;;;;;;;;5112986;27;20036;-79
2021/06/06 14:05:35;;;;;;;24.20;14.68;;;;;;;;;;5109220;28;20083;-79
2021/06/06 14:08:01;;;;;;;23.23;16.20;;;;;;;;;;5093458;28;20053;-80
2021/06/06 14:10:36;;;;;;;22.67;15.57;;;;;;;;;;5102482;28;20067;-80
2021/06/06 14:13:03;;;;;;;22.38;15.43;;;;;;;;;;5110295;28;20413;-79
2021/06/06 14:15:29;;;;;;;19.38;13.73;;;;;;;;;;5109362;28;20516;-80
2021/06/06 14:17:56;;;;;;;19.98;13.32;;;;;;;;;;5109212;28;20549;-79
2021/06/06 14:20:23;;;;;;;21.42;12.63;;;;;;;;;;5108892;28;20066;-79
2021/06/06 14:22:52;;;;;;;22.80;12.95;;;;;;;;;;5101098;27;20047;-79
2021/06/06 14:25:19;;;;;;;16.92;12.90;;;;;;;;;;5115291;27;20047;-79
2021/06/06 14:27:45;;;;;;;19.13;12.85;;;;;;;;;;5093863;28;20137;-79
2021/06/06 14:30:11;;;;;;;;;;;;;;;;;;5113130;27;20039;-79
2021/06/06 14:32:37;;;;;;;17.33;11.77;;;;;;;;;;5107301;27;19947;-79
2021/06/06 14:35:05;;;;;;;17.40;12.30;;;;;;;;;;5108459;28;20047;-79
2021/06/06 14:37:31;;;;;;;18.27;12.65;;;;;;;;;;5111383;28;20050;-79